Time;durP1;ratioP1;P1;durP2;ratioP2;P2;SDS_P1;SDS_P2;PMS_P1;PMS_P2;Temp;Humidity;BMP_temperature;BMP_pressure;BME280_temperature;BME280_humidity;BME280_pressure;Samples;Min_cycle;Max_cycle;Signal;HPM_P1;HPM_P2
2022/05/25 00:02:01;;;;;;;3.60;0.93;;;;;;;;;;5007544;28;20127;-84
2022/05/25 00:04:27;;;;;;;1.27;0.77;;;;;;;;;;5012720;28;20148;-86
2022/05/25 00:06:53;;;;;;;1.25;0.80;;;;;;;;;;5011967;28;20511;-85
2022/05/25 00:09:20;;;;;;;2.13;0.70;;;;;;;;;;5013707;28;20479;-84
2022/05/25 00:11:46;;;;;;;2.25;0.70;;;;;;;;;;5013156;28;20443;-85
2022/05/25 00:14:13;;;;;;;2.10;0.82;;;;;;;;;;5012160;28;20120;-86
2022/05/25 00:16:39;;;;;;;1.85;0.80;;;;;;;;;;5011926;28;20033;-86
2022/05/25 00:21:49;;;;;;;3.53;0.80;;;;;;;;;;5013287;28;20041;-86
2022/05/25 00:24:16;;;;;;;1.40;0.80;;;;;;;;;;5010509;28;20030;-85
2022/05/25 00:26:42;;;;;;;1.85;0.85;;;;;;;;;;4995030;28;20027;-86
2022/05/25 00:29:08;;;;;;;5.78;1.00;;;;;;;;;;4997553;28;20018;-85
2022/05/25 00:31:35;;;;;;;2.22;0.77;;;;;;;;;;4995938;28;20030;-84
2022/05/25 00:34:01;;;;;;;1.95;0.82;;;;;;;;;;4997966;28;20105;-86
2022/05/25 00:36:27;;;;;;;4.82;0.82;;;;;;;;;;5012076;28;20037;-86
2022/05/25 00:38:53;;;;;;;6.00;0.90;;;;;;;;;;5013309;28;20399;-85
2022/05/25 00:41:23;;;;;;;1.80;0.70;;;;;;;;;;5011828;28;20026;-84
2022/05/25 00:43:49;;;;;;;0.80;0.68;;;;;;;;;;5012150;28;20034;-84
2022/05/25 00:46:16;;;;;;;0.82;0.80;;;;;;;;;;5013462;28;20018;-87
2022/05/25 00:48:48;;;;;;;1.42;0.75;;;;;;;;;;5012303;28;20503;-88
2022/05/25 00:51:21;;;;;;;2.58;0.57;;;;;;;;;;5011204;28;20029;-85
2022/05/25 00:53:58;;;;;;;1.02;0.90;;;;;;;;;;5011606;28;20044;-86
2022/05/25 00:56:26;;;;;;;0.68;0.68;;;;;;;;;;5011671;28;20034;-87
2022/05/25 00:59:01;;;;;;;4.20;0.82;;;;;;;;;;5012052;28;20037;-86
2022/05/25 01:01:28;;;;;;;3.53;1.10;;;;;;;;;;5027296;28;20160;-87
2022/05/25 01:03:54;;;;;;;2.45;0.80;;;;;;;;;;5041927;28;20033;-86
2022/05/25 01:06:26;;;;;;;2.50;1.00;;;;;;;;;;5015002;28;20030;-85
2022/05/25 01:08:52;;;;;;;2.03;0.98;;;;;;;;;;5009628;28;20074;-86
2022/05/25 01:11:24;;;;;;;3.35;0.70;;;;;;;;;;5006616;28;20587;-85
2022/05/25 01:14:08;;;;;;;1.50;0.65;;;;;;;;;;5013888;28;20026;-86
2022/05/25 01:16:43;;;;;;;4.15;1.10;;;;;;;;;;5012186;28;20112;-86
2022/05/25 01:19:27;;;;;;;1.15;0.80;;;;;;;;;;5013359;28;20029;-86
2022/05/25 01:22:08;;;;;;;1.15;0.80;;;;;;;;;;5011955;28;20030;-85
2022/05/25 01:24:46;;;;;;;1.40;0.82;;;;;;;;;;5013084;28;20036;-86
2022/05/25 01:27:12;;;;;;;1.67;0.82;;;;;;;;;;5013442;28;20033;-85
2022/05/25 01:29:57;;;;;;;1.60;0.80;;;;;;;;;;5013195;28;20459;-86
2022/05/25 01:32:33;;;;;;;0.73;0.65;;;;;;;;;;5012756;28;20029;-86
2022/05/25 01:35:03;;;;;;;5.65;1.05;;;;;;;;;;5011363;28;20054;-87
2022/05/25 01:37:32;;;;;;;0.77;0.77;;;;;;;;;;5012706;28;20046;-85
2022/05/25 01:40:16;;;;;;;1.70;0.80;;;;;;;;;;5013153;28;20116;-86
2022/05/25 01:42:49;;;;;;;3.38;1.05;;;;;;;;;;5010809;28;20051;-87
2022/05/25 01:45:16;;;;;;;0.90;0.90;;;;;;;;;;4992022;28;20038;-87
2022/05/25 01:47:44;;;;;;;3.22;1.00;;;;;;;;;;4992859;28;20030;-88
2022/05/25 01:50:12;;;;;;;2.20;0.90;;;;;;;;;;5011671;28;20128;-86
2022/05/25 01:52:44;;;;;;;1.60;0.88;;;;;;;;;;5007348;28;20037;-86
2022/05/25 01:55:13;;;;;;;3.05;0.85;;;;;;;;;;4992280;28;20038;-85
2022/05/25 01:57:42;;;;;;;0.85;0.77;;;;;;;;;;4993355;28;20034;-85
2022/05/25 02:00:08;;;;;;;4.78;0.85;;;;;;;;;;4992873;28;20022;-85
2022/05/25 02:05:21;;;;;;;3.08;0.90;;;;;;;;;;4996478;28;20057;-85
2022/05/25 02:07:59;;;;;;;1.48;0.85;;;;;;;;;;5011970;28;20014;-86
2022/05/25 02:10:37;;;;;;;2.67;0.88;;;;;;;;;;5013272;28;20030;-86
2022/05/25 02:13:03;;;;;;;1.42;0.82;;;;;;;;;;5011284;28;20511;-87
2022/05/25 02:15:43;;;;;;;0.80;0.75;;;;;;;;;;5010623;28;20089;-86
2022/05/25 02:18:12;;;;;;;0.98;0.93;;;;;;;;;;5011808;28;20411;-86
2022/05/25 02:20:47;;;;;;;8.13;0.90;;;;;;;;;;5010456;28;20112;-86
2022/05/25 02:23:22;;;;;;;1.80;1.38;;;;;;;;;;5014198;28;20029;-84
2022/05/25 02:25:56;;;;;;;1.05;0.93;;;;;;;;;;5015489;28;20076;-85
2022/05/25 02:28:27;;;;;;;1.27;0.80;;;;;;;;;;5016965;28;20022;-85
2022/05/25 02:30:55;;;;;;;2.45;1.00;;;;;;;;;;5016306;28;20076;-84
2022/05/25 02:33:29;;;;;;;1.02;0.80;;;;;;;;;;5014493;28;20109;-84
2022/05/25 02:35:56;;;;;;;2.03;1.00;;;;;;;;;;5016808;28;20033;-85
2022/05/25 02:38:23;;;;;;;2.72;0.75;;;;;;;;;;5011812;28;20036;-84
2022/05/25 02:40:49;;;;;;;1.58;0.98;;;;;;;;;;4997220;28;20027;-86
2022/05/25 02:43:15;;;;;;;2.28;0.95;;;;;;;;;;4996767;28;20034;-85
2022/05/25 02:45:42;;;;;;;3.03;1.00;;;;;;;;;;5014982;28;20026;-85
2022/05/25 02:48:08;;;;;;;3.22;1.20;;;;;;;;;;5016553;28;20018;-86
2022/05/25 02:50:35;;;;;;;1.98;1.00;;;;;;;;;;5014717;28;20018;-84
2022/05/25 02:53:01;;;;;;;1.20;0.80;;;;;;;;;;5014880;28;20507;-85
2022/05/25 02:55:27;;;;;;;1.67;1.00;;;;;;;;;;5015863;28;20026;-85
2022/05/25 02:57:54;;;;;;;1.40;1.20;;;;;;;;;;5033631;28;20032;-85
2022/05/25 03:00:20;;;;;;;2.10;1.02;;;;;;;;;;5025551;28;20072;-84
2022/05/25 03:02:46;;;;;;;1.38;1.27;;;;;;;;;;5017294;28;20038;-85
2022/05/25 03:05:12;;;;;;;1.30;1.00;;;;;;;;;;5013906;28;20476;-85
2022/05/25 03:07:38;;;;;;;1.63;1.05;;;;;;;;;;5014241;28;20108;-85
2022/05/25 03:10:05;;;;;;;1.77;0.93;;;;;;;;;;5016137;28;20429;-86
2022/05/25 03:12:31;;;;;;;3.05;1.58;;;;;;;;;;5016211;28;20022;-86
2022/05/25 03:14:57;;;;;;;1.80;1.15;;;;;;;;;;5016180;28;20029;-86
2022/05/25 03:17:23;;;;;;;3.40;1.38;;;;;;;;;;5015503;28;20022;-85
2022/05/25 03:19:54;;;;;;;1.58;1.10;;;;;;;;;;5016997;28;20037;-85
2022/05/25 03:22:20;;;;;;;2.78;1.50;;;;;;;;;;5017138;28;20100;-85
2022/05/25 03:24:46;;;;;;;5.18;1.30;;;;;;;;;;5018131;28;20520;-87
2022/05/25 03:27:12;;;;;;;1.38;1.13;;;;;;;;;;5018180;28;20033;-87
2022/05/25 03:29:38;;;;;;;1.65;1.00;;;;;;;;;;5013343;28;20026;-86
2022/05/25 03:32:04;;;;;;;1.30;1.15;;;;;;;;;;4998614;28;20025;-86
2022/05/25 03:34:31;;;;;;;2.45;1.30;;;;;;;;;;4999376;28;20045;-85
2022/05/25 03:36:57;;;;;;;2.45;0.95;;;;;;;;;;5006369;28;20054;-85
2022/05/25 03:39:23;;;;;;;2.30;1.17;;;;;;;;;;4997091;28;20161;-86
2022/05/25 03:41:52;;;;;;;1.40;1.08;;;;;;;;;;4995319;28;20038;-85
2022/05/25 03:44:20;;;;;;;2.15;1.23;;;;;;;;;;4995180;28;20373;-85
2022/05/25 03:46:46;;;;;;;1.20;0.98;;;;;;;;;;4994468;28;20088;-85
2022/05/25 03:49:12;;;;;;;2.22;1.10;;;;;;;;;;4995476;28;20117;-87
2022/05/25 03:51:38;;;;;;;2.45;1.38;;;;;;;;;;4994018;28;20033;-85
2022/05/25 03:54:04;;;;;;;1.20;1.10;;;;;;;;;;4996584;28;20026;-84
2022/05/25 03:56:30;;;;;;;4.00;1.20;;;;;;;;;;5000421;28;20450;-85
2022/05/25 03:58:56;;;;;;;1.52;1.30;;;;;;;;;;4998582;28;20030;-84
2022/05/25 04:01:21;;;;;;;3.20;2.15;;;;;;;;;;5007408;28;20031;-85
2022/05/25 04:03:47;;;;;;;2.55;1.30;;;;;;;;;;4999645;28;20049;-83
2022/05/25 04:06:13;;;;;;;1.98;1.42;;;;;;;;;;5000192;28;20497;-85
2022/05/25 04:08:40;;;;;;;3.05;1.40;;;;;;;;;;5000052;28;20054;-85
2022/05/25 04:11:06;;;;;;;1.42;1.23;;;;;;;;;;5017158;28;20519;-85
2022/05/25 04:13:32;;;;;;;3.03;1.20;;;;;;;;;;5018476;28;20025;-84
2022/05/25 04:15:58;;;;;;;4.65;1.67;;;;;;;;;;5018241;28;20089;-85
2022/05/25 04:18:24;;;;;;;1.67;1.30;;;;;;;;;;5014246;28;20026;-85
2022/05/25 04:20:50;;;;;;;4.85;1.27;;;;;;;;;;5006617;28;20084;-85
2022/05/25 04:23:16;;;;;;;1.15;1.00;;;;;;;;;;5016302;28;20030;-85
2022/05/25 04:25:42;;;;;;;3.45;1.67;;;;;;;;;;5015447;28;20054;-85
2022/05/25 04:28:08;;;;;;;4.03;1.40;;;;;;;;;;5014275;28;20025;-85
2022/05/25 04:30:34;;;;;;;2.70;2.22;;;;;;;;;;5010112;28;20033;-84
2022/05/25 04:33:01;;;;;;;1.52;1.33;;;;;;;;;;4995459;28;20416;-85
2022/05/25 04:35:27;;;;;;;2.63;1.75;;;;;;;;;;4995517;28;20081;-85
2022/05/25 04:37:54;;;;;;;2.28;1.23;;;;;;;;;;5004818;28;20036;-88
2022/05/25 04:40:21;;;;;;;1.42;1.33;;;;;;;;;;5012250;28;20030;-87
2022/05/25 04:42:47;;;;;;;1.48;1.25;;;;;;;;;;5013578;28;20038;-89
2022/05/25 04:45:14;;;;;;;2.47;1.55;;;;;;;;;;5011553;28;20041;-89
2022/05/25 04:47:42;;;;;;;5.57;1.63;;;;;;;;;;5013154;28;20080;-88
2022/05/25 04:50:09;;;;;;;3.58;2.03;;;;;;;;;;5013819;28;20038;-90
2022/05/25 04:52:36;;;;;;;3.03;1.30;;;;;;;;;;5020763;28;20026;-89
2022/05/25 04:55:02;;;;;;;2.65;1.90;;;;;;;;;;5023536;28;20033;-87
2022/05/25 04:57:28;;;;;;;4.38;1.52;;;;;;;;;;5012461;28;20411;-87
2022/05/25 04:59:55;;;;;;;1.55;1.30;;;;;;;;;;5014287;28;20018;-88
2022/05/25 05:02:21;;;;;;;2.85;2.00;;;;;;;;;;5013417;28;20022;-89
2022/05/25 05:04:50;;;;;;;3.50;1.40;;;;;;;;;;5011651;28;20044;-89
2022/05/25 05:07:16;;;;;;;3.00;1.92;;;;;;;;;;5011143;28;20032;-87
2022/05/25 05:09:44;;;;;;;3.58;1.75;;;;;;;;;;5014586;28;20030;-89
2022/05/25 05:12:10;;;;;;;5.28;1.98;;;;;;;;;;5015789;28;20646;-90
2022/05/25 05:14:37;;;;;;;3.05;1.88;;;;;;;;;;5013270;28;20032;-88
2022/05/25 05:17:04;;;;;;;2.58;1.75;;;;;;;;;;5017097;28;20022;-89
2022/05/25 05:19:30;;;;;;;3.83;2.17;;;;;;;;;;5013572;28;20040;-88
2022/05/25 05:21:59;;;;;;;8.18;2.42;;;;;;;;;;5016368;28;20392;-90
2022/05/25 05:24:25;;;;;;;2.67;1.88;;;;;;;;;;5013543;28;20026;-90
2022/05/25 05:26:51;;;;;;;5.10;1.80;;;;;;;;;;5017019;28;20033;-89
2022/05/25 05:29:17;;;;;;;2.60;1.77;;;;;;;;;;5025659;28;20014;-89
2022/05/25 05:31:43;;;;;;;3.85;2.30;;;;;;;;;;5024727;28;20033;-89
2022/05/25 05:34:09;;;;;;;2.33;1.73;;;;;;;;;;5030457;28;20038;-89
2022/05/25 05:36:40;;;;;;;3.65;2.22;;;;;;;;;;5023092;28;20084;-89
2022/05/25 05:39:07;;;;;;;2.20;1.90;;;;;;;;;;5018236;28;20120;-88
2022/05/25 05:41:36;;;;;;;6.80;2.20;;;;;;;;;;5019650;28;20038;-89
2022/05/25 05:44:03;;;;;;;2.78;2.05;;;;;;;;;;5010626;28;20034;-88
2022/05/25 05:46:30;;;;;;;4.70;2.00;;;;;;;;;;4993411;28;20085;-90
2022/05/25 05:48:56;;;;;;;2.47;2.28;;;;;;;;;;5010543;28;20025;-89
2022/05/25 05:51:22;;;;;;;8.40;1.90;;;;;;;;;;5010942;28;20476;-89
2022/05/25 05:53:49;;;;;;;6.05;2.13;;;;;;;;;;5044783;23;20049;-86
2022/05/25 05:56:17;;;;;;;6.68;2.55;;;;;;;;;;5032798;28;20127;-87
2022/05/25 05:58:43;;;;;;;5.32;2.10;;;;;;;;;;5032472;28;20021;-89
2022/05/25 06:01:09;;;;;;;3.97;1.85;;;;;;;;;;5033076;28;20029;-88
2022/05/25 06:03:35;;;;;;;2.72;2.10;;;;;;;;;;5029798;28;20390;-86
2022/05/25 06:06:01;;;;;;;2.97;1.70;;;;;;;;;;5012425;28;20030;-85
2022/05/25 06:08:29;;;;;;;4.20;2.65;;;;;;;;;;5014760;28;20037;-88
2022/05/25 06:10:56;;;;;;;6.63;2.00;;;;;;;;;;5012218;28;20025;-87
2022/05/25 06:13:22;;;;;;;6.20;2.55;;;;;;;;;;5045073;28;20533;-89
2022/05/25 06:21:19;;;;;;;3.80;2.00;;;;;;;;;;5016281;28;20044;-88
2022/05/25 06:23:45;;;;;;;2.15;1.80;;;;;;;;;;5015196;28;20033;-88
2022/05/25 06:26:11;;;;;;;4.60;2.10;;;;;;;;;;5012668;28;20030;-88
2022/05/25 06:28:37;;;;;;;2.80;1.77;;;;;;;;;;5012455;28;20022;-87
2022/05/25 06:31:03;;;;;;;4.63;2.33;;;;;;;;;;5044166;28;20026;-88
2022/05/25 06:33:29;;;;;;;8.20;2.25;;;;;;;;;;5043915;28;20439;-87
2022/05/25 06:35:56;;;;;;;4.18;1.90;;;;;;;;;;5012662;28;20032;-87
2022/05/25 06:38:22;;;;;;;14.73;3.28;;;;;;;;;;5044324;28;20030;-86
2022/05/25 06:40:48;;;;;;;6.38;2.28;;;;;;;;;;5012871;28;20033;-88
2022/05/25 06:43:14;;;;;;;5.80;1.80;;;;;;;;;;5044188;28;20030;-87
2022/05/25 06:45:40;;;;;;;4.53;1.55;;;;;;;;;;5012360;28;20022;-88
2022/05/25 06:48:07;;;;;;;4.70;1.80;;;;;;;;;;5011940;28;20115;-87
2022/05/25 06:50:34;;;;;;;4.57;1.65;;;;;;;;;;5012604;28;20041;-87
2022/05/25 06:53:00;;;;;;;4.88;1.50;;;;;;;;;;5012865;28;20399;-87
2022/05/25 06:55:26;;;;;;;3.10;1.60;;;;;;;;;;5017295;28;20384;-89
2022/05/25 06:57:52;;;;;;;5.22;1.70;;;;;;;;;;5010595;28;20105;-88
2022/05/25 07:00:18;;;;;;;2.90;2.35;;;;;;;;;;5009940;28;20026;-87
2022/05/25 07:02:44;;;;;;;4.10;1.40;;;;;;;;;;5010667;28;20034;-87
2022/05/25 07:05:10;;;;;;;2.80;1.35;;;;;;;;;;5011546;28;20048;-88
2022/05/25 07:07:38;;;;;;;6.07;1.52;;;;;;;;;;5011982;28;20034;-87
2022/05/25 07:10:04;;;;;;;4.25;1.63;;;;;;;;;;5013232;28;20164;-88
2022/05/25 07:12:31;;;;;;;4.55;1.63;;;;;;;;;;5014139;28;20033;-87
2022/05/25 07:14:57;;;;;;;4.90;1.40;;;;;;;;;;5015320;28;20021;-87
2022/05/25 07:17:23;;;;;;;3.92;1.77;;;;;;;;;;5015619;28;20021;-86
2022/05/25 07:19:49;;;;;;;5.47;1.58;;;;;;;;;;5015192;28;20065;-87
2022/05/25 07:22:16;;;;;;;2.40;1.58;;;;;;;;;;5014155;28;20029;-87
2022/05/25 07:24:42;;;;;;;5.00;1.35;;;;;;;;;;5014080;28;20030;-88
2022/05/25 07:27:08;;;;;;;6.70;2.22;;;;;;;;;;5015076;28;20014;-88
2022/05/25 07:29:33;;;;;;;4.43;1.60;;;;;;;;;;5015910;28;20369;-88
2022/05/25 07:32:02;;;;;;;3.95;1.33;;;;;;;;;;5019243;28;20076;-87
2022/05/25 07:34:33;;;;;;;6.90;2.10;;;;;;;;;;5017204;28;20026;-88
2022/05/25 07:37:02;;;;;;;5.68;1.20;;;;;;;;;;5017098;28;20077;-88
2022/05/25 07:39:30;;;;;;;2.17;1.17;;;;;;;;;;5016113;28;20038;-88
2022/05/25 07:41:57;;;;;;;4.10;1.10;;;;;;;;;;5015430;28;20488;-88
2022/05/25 07:44:26;;;;;;;2.33;1.00;;;;;;;;;;5015370;28;20084;-87
2022/05/25 07:46:52;;;;;;;2.15;1.00;;;;;;;;;;5013564;28;20025;-87
2022/05/25 07:49:18;;;;;;;2.80;1.20;;;;;;;;;;5015124;28;20033;-88
2022/05/25 07:51:45;;;;;;;4.43;1.42;;;;;;;;;;5014871;28;20552;-88
2022/05/25 07:54:11;;;;;;;3.35;1.15;;;;;;;;;;5013799;28;20395;-88
2022/05/25 07:56:38;;;;;;;2.28;0.98;;;;;;;;;;5013301;28;20030;-88
2022/05/25 07:59:08;;;;;;;1.92;1.10;;;;;;;;;;5015149;28;20105;-88
2022/05/25 08:07:15;;;;;;;1.88;0.80;;;;;;;;;;4996051;28;20085;-87
2022/05/25 08:09:42;;;;;;;3.00;1.00;;;;;;;;;;4994357;28;20395;-88
2022/05/25 08:12:09;;;;;;;1.75;1.00;;;;;;;;;;4994414;28;20114;-88
2022/05/25 08:14:35;;;;;;;4.43;1.00;;;;;;;;;;4995273;28;20404;-88
2022/05/25 08:17:02;;;;;;;1.98;1.10;;;;;;;;;;4996302;28;20034;-88
2022/05/25 08:19:28;;;;;;;3.42;1.00;;;;;;;;;;5006521;28;20021;-87
2022/05/25 08:21:54;;;;;;;2.85;1.20;;;;;;;;;;5047021;28;20029;-88
2022/05/25 08:24:20;;;;;;;2.60;1.23;;;;;;;;;;5016978;28;20164;-88
2022/05/25 08:26:46;;;;;;;1.73;0.98;;;;;;;;;;5016330;28;20396;-88
2022/05/25 08:29:12;;;;;;;5.03;1.35;;;;;;;;;;5018822;28;20030;-88
2022/05/25 08:31:38;;;;;;;3.95;1.30;;;;;;;;;;5062732;28;20086;-88
2022/05/25 08:34:05;;;;;;;2.33;0.95;;;;;;;;;;5031787;28;20026;-88
2022/05/25 08:36:32;;;;;;;2.90;0.90;;;;;;;;;;5027607;28;20034;-86
2022/05/25 08:38:58;;;;;;;1.17;0.80;;;;;;;;;;5026585;28;20035;-85
2022/05/25 08:41:32;;;;;;;2.58;0.90;;;;;;;;;;5065579;28;20057;-88
2022/05/25 08:43:59;;;;;;;2.60;1.10;;;;;;;;;;5065385;28;20034;-88
2022/05/25 08:46:26;;;;;;;1.88;0.95;;;;;;;;;;5027696;28;20113;-88
2022/05/25 08:48:52;;;;;;;1.85;0.98;;;;;;;;;;5057612;28;20029;-87
2022/05/25 08:51:20;;;;;;;2.80;0.95;;;;;;;;;;5053183;28;20117;-87
2022/05/25 08:53:46;;;;;;;1.90;0.85;;;;;;;;;;5016596;28;20036;-87
2022/05/25 08:56:22;;;;;;;4.88;0.80;;;;;;;;;;5053929;28;20022;-86
2022/05/25 08:58:49;;;;;;;2.90;0.75;;;;;;;;;;5018340;28;20516;-87
2022/05/25 09:01:41;;;;;;;4.40;0.90;;;;;;;;;;5061252;28;20045;-88
2022/05/25 09:04:18;;;;;;;1.52;0.60;;;;;;;;;;4995382;28;20042;-87
2022/05/25 09:06:44;;;;;;;3.65;0.80;;;;;;;;;;5012427;28;20026;-88
2022/05/25 09:09:19;;;;;;;7.45;0.95;;;;;;;;;;5006006;28;20062;-89
2022/05/25 09:11:48;;;;;;;5.18;0.60;;;;;;;;;;5009097;28;20027;-88
2022/05/25 09:14:21;;;;;;;1.70;0.57;;;;;;;;;;5010576;28;20029;-88
2022/05/25 09:16:50;;;;;;;3.40;0.60;;;;;;;;;;5010019;28;20022;-88
2022/05/25 09:19:25;;;;;;;4.97;0.80;;;;;;;;;;5018218;28;20026;-87
2022/05/25 09:21:51;;;;;;;0.88;0.45;;;;;;;;;;5057686;28;20037;-87
2022/05/25 09:24:19;;;;;;;2.15;0.73;;;;;;;;;;5050591;28;20085;-88
2022/05/25 09:26:45;;;;;;;2.13;1.17;;;;;;;;;;5052705;28;20037;-88
2022/05/25 09:29:12;;;;;;;1.85;0.80;;;;;;;;;;5045077;28;20014;-88
2022/05/25 09:31:59;;;;;;;3.85;0.90;;;;;;;;;;5012503;28;20084;-88
2022/05/25 09:34:29;;;;;;;3.30;0.52;;;;;;;;;;5044922;28;20053;-89
2022/05/25 09:36:58;;;;;;;5.13;0.80;;;;;;;;;;5013340;28;20029;-88
2022/05/25 09:39:24;;;;;;;1.42;0.57;;;;;;;;;;5012874;28;20033;-88
2022/05/25 09:41:54;;;;;;;4.80;0.60;;;;;;;;;;5012627;28;20422;-88
2022/05/25 09:44:20;;;;;;;3.63;1.00;;;;;;;;;;5044721;28;20032;-88
2022/05/25 09:46:49;;;;;;;1.45;0.50;;;;;;;;;;5013055;28;20022;-89
2022/05/25 09:49:26;;;;;;;1.90;0.50;;;;;;;;;;5045241;28;20018;-88
2022/05/25 09:51:53;;;;;;;2.53;0.73;;;;;;;;;;5012914;28;20022;-88
2022/05/25 09:54:31;;;;;;;2.80;0.63;;;;;;;;;;5012685;28;20056;-88
2022/05/25 09:56:59;;;;;;;0.75;0.52;;;;;;;;;;5044993;28;20033;-88
2022/05/25 09:59:26;;;;;;;3.75;0.70;;;;;;;;;;5012837;28;20030;-88
2022/05/25 10:01:52;;;;;;;2.95;0.60;;;;;;;;;;5012528;28;20057;-87
2022/05/25 10:04:51;;;;;;;0.65;0.50;;;;;;;;;;5012650;28;20026;-88
2022/05/25 10:07:19;;;;;;;3.30;0.50;;;;;;;;;;5013002;28;20022;-89
2022/05/25 10:09:49;;;;;;;1.38;0.40;;;;;;;;;;5013009;28;20022;-88
2022/05/25 10:12:31;;;;;;;2.38;0.85;;;;;;;;;;5044587;28;20028;-88
2022/05/25 10:14:59;;;;;;;2.60;0.60;;;;;;;;;;5012632;28;20058;-88
2022/05/25 10:17:39;;;;;;;3.83;0.80;;;;;;;;;;5012910;28;20030;-88
2022/05/25 10:20:25;;;;;;;0.95;0.40;;;;;;;;;;5012602;28;20032;-88
2022/05/25 10:22:58;;;;;;;0.60;0.40;;;;;;;;;;5001506;28;20030;-88
2022/05/25 10:25:28;;;;;;;0.68;0.43;;;;;;;;;;5012794;28;20022;-89
2022/05/25 10:27:55;;;;;;;1.10;0.60;;;;;;;;;;5044711;28;20109;-89
2022/05/25 10:38:45;;;;;;;2.40;0.50;;;;;;;;;;5012763;28;20044;-88
2022/05/25 10:44:05;;;;;;;2.97;0.82;;;;;;;;;;5014827;28;20087;-88
2022/05/25 10:46:32;;;;;;;2.92;0.57;;;;;;;;;;5016249;28;20029;-88
2022/05/25 10:49:07;;;;;;;4.57;0.65;;;;;;;;;;5048254;28;20026;-88
2022/05/25 10:51:59;;;;;;;1.70;0.60;;;;;;;;;;5015912;28;20113;-87
2022/05/25 10:54:44;;;;;;;1.05;0.60;;;;;;;;;;5013226;28;20503;-88
2022/05/25 10:57:21;;;;;;;2.05;0.55;;;;;;;;;;5015931;28;20113;-88
2022/05/25 10:59:48;;;;;;;2.15;0.57;;;;;;;;;;5015959;28;20049;-88
2022/05/25 11:02:27;;;;;;;2.03;0.80;;;;;;;;;;5015666;28;20025;-88
2022/05/25 11:05:09;;;;;;;1.10;0.50;;;;;;;;;;5015981;28;20029;-86
2022/05/25 11:07:42;;;;;;;1.33;0.60;;;;;;;;;;5016081;28;20480;-89
2022/05/25 11:10:17;;;;;;;0.65;0.32;;;;;;;;;;5047902;28;20053;-88
2022/05/25 11:12:49;;;;;;;0.82;0.40;;;;;;;;;;5015500;28;20022;-88
2022/05/25 11:15:15;;;;;;;3.30;0.52;;;;;;;;;;5016365;28;20022;-88
2022/05/25 11:17:41;;;;;;;1.95;0.50;;;;;;;;;;5047562;28;20547;-87
2022/05/25 11:20:07;;;;;;;0.82;0.40;;;;;;;;;;5047613;28;20030;-88
2022/05/25 11:22:36;;;;;;;0.35;0.35;;;;;;;;;;5047220;28;20044;-89
2022/05/25 11:25:10;;;;;;;2.28;0.45;;;;;;;;;;5015398;28;20105;-88
2022/05/25 11:27:55;;;;;;;2.67;0.82;;;;;;;;;;5047282;28;20030;-88
2022/05/25 11:30:24;;;;;;;1.85;0.80;;;;;;;;;;5046954;28;20040;-88
2022/05/25 11:33:06;;;;;;;1.83;0.60;;;;;;;;;;5015472;28;20022;-88
2022/05/25 11:35:41;;;;;;;2.72;0.55;;;;;;;;;;5014778;28;20033;-88
2022/05/25 11:38:07;;;;;;;2.42;0.57;;;;;;;;;;5015339;28;20044;-88
2022/05/25 11:40:52;;;;;;;1.85;0.60;;;;;;;;;;5015326;28;20476;-88
2022/05/25 11:43:24;;;;;;;0.93;0.40;;;;;;;;;;5014879;28;20033;-87
2022/05/25 11:45:57;;;;;;;1.13;0.47;;;;;;;;;;5014939;28;20492;-87
2022/05/25 11:48:33;;;;;;;3.60;0.50;;;;;;;;;;5015043;28;20684;-89
2022/05/25 11:50:59;;;;;;;1.35;0.50;;;;;;;;;;5046822;28;20029;-88
2022/05/25 11:53:32;;;;;;;3.45;0.50;;;;;;;;;;5046559;28;20033;-87
2022/05/25 11:56:13;;;;;;;2.10;0.30;;;;;;;;;;5047196;28;20025;-88
2022/05/25 11:58:39;;;;;;;;;;;;;;;;;;5015572;28;20099;-87
2022/05/25 12:01:25;;;;;;;1.30;0.32;;;;;;;;;;5014788;28;20380;-87
2022/05/25 12:03:51;;;;;;;1.05;0.68;;;;;;;;;;4993955;28;20482;-87
2022/05/25 12:06:40;;;;;;;2.55;0.65;;;;;;;;;;5014358;28;20029;-88
2022/05/25 12:09:15;;;;;;;0.93;0.52;;;;;;;;;;5004509;28;20520;-89
2022/05/25 12:11:48;;;;;;;0.60;0.30;;;;;;;;;;5014314;28;20030;-87
2022/05/25 12:14:28;;;;;;;2.95;0.50;;;;;;;;;;5013328;28;20025;-86
2022/05/25 12:16:56;;;;;;;1.35;0.70;;;;;;;;;;5014508;28;20029;-85
2022/05/25 12:19:27;;;;;;;0.60;0.50;;;;;;;;;;5013384;28;20021;-86
2022/05/25 12:21:58;;;;;;;3.63;0.40;;;;;;;;;;5014436;28;20026;-87
2022/05/25 12:24:32;;;;;;;2.33;0.30;;;;;;;;;;5014231;28;20030;-86
2022/05/25 12:26:59;;;;;;;0.85;0.38;;;;;;;;;;5014559;28;20029;-86
2022/05/25 12:29:28;;;;;;;0.85;0.30;;;;;;;;;;5014410;28;20022;-86
2022/05/25 12:31:56;;;;;;;2.45;0.60;;;;;;;;;;5045890;28;20041;-86
2022/05/25 12:34:26;;;;;;;1.10;0.45;;;;;;;;;;5014361;28;20018;-86
2022/05/25 12:36:52;;;;;;;1.88;0.40;;;;;;;;;;5045916;28;20484;-85
2022/05/25 12:39:37;;;;;;;2.67;0.50;;;;;;;;;;5014080;28;20044;-86
2022/05/25 12:42:21;;;;;;;2.55;0.50;;;;;;;;;;5045982;28;20065;-86
2022/05/25 12:50:57;;;;;;;3.45;0.52;;;;;;;;;;5013944;28;20172;-87
2022/05/25 12:53:35;;;;;;;0.70;0.50;;;;;;;;;;4992162;28;20034;-86
2022/05/25 12:56:05;;;;;;;1.20;0.60;;;;;;;;;;4975907;28;20030;-86
2022/05/25 12:58:40;;;;;;;0.82;0.30;;;;;;;;;;4995855;28;20041;-86
2022/05/25 13:01:26;;;;;;;0.77;0.30;;;;;;;;;;5007604;28;20026;-86
2022/05/25 13:03:52;;;;;;;0.82;0.40;;;;;;;;;;5013895;28;20037;-86
2022/05/25 13:06:18;;;;;;;0.93;0.47;;;;;;;;;;5044839;28;20132;-88
2022/05/25 13:08:47;;;;;;;1.77;0.40;;;;;;;;;;5013411;28;20065;-88
2022/05/25 13:11:31;;;;;;;0.50;0.32;;;;;;;;;;5045097;28;20033;-87
2022/05/25 13:14:02;;;;;;;2.88;0.50;;;;;;;;;;5013760;28;20032;-86
2022/05/25 13:16:45;;;;;;;2.05;0.32;;;;;;;;;;5012587;28;20026;-87
2022/05/25 13:19:32;;;;;;;1.60;0.50;;;;;;;;;;5012636;28;20384;-87
2022/05/25 13:22:06;;;;;;;4.07;0.50;;;;;;;;;;5012753;28;20036;-87
2022/05/25 13:24:35;;;;;;;0.47;0.30;;;;;;;;;;5012316;28;20022;-87
2022/05/25 13:27:16;;;;;;;0.93;0.30;;;;;;;;;;5012603;28;20044;-85
2022/05/25 13:29:57;;;;;;;2.42;0.52;;;;;;;;;;5012581;28;20045;-87
2022/05/25 13:32:23;;;;;;;0.98;0.40;;;;;;;;;;5014023;28;20043;-87
2022/05/25 13:34:49;;;;;;;2.50;0.43;;;;;;;;;;5013467;28;20029;-87
2022/05/25 13:37:15;;;;;;;1.73;0.40;;;;;;;;;;5012326;28;20022;-86
2022/05/25 13:39:41;;;;;;;1.55;0.30;;;;;;;;;;5012095;28;20454;-86
2022/05/25 13:42:18;;;;;;;1.00;0.40;;;;;;;;;;5011813;28;20037;-86
2022/05/25 13:44:47;;;;;;;3.67;0.70;;;;;;;;;;5013160;28;20030;-88
2022/05/25 13:47:17;;;;;;;1.13;0.52;;;;;;;;;;5013635;28;20072;-87
2022/05/25 13:49:48;;;;;;;2.88;0.40;;;;;;;;;;5013463;28;20022;-87
2022/05/25 13:52:25;;;;;;;0.30;0.28;;;;;;;;;;5013554;28;20057;-87
2022/05/25 13:54:51;;;;;;;3.08;0.60;;;;;;;;;;5012084;28;20399;-86
2022/05/25 13:57:29;;;;;;;4.70;0.50;;;;;;;;;;5011839;28;20028;-85
2022/05/25 13:59:55;;;;;;;2.88;0.73;;;;;;;;;;5011847;28;20518;-86
2022/05/25 14:02:30;;;;;;;0.40;0.40;;;;;;;;;;5011638;28;20034;-85
2022/05/25 14:05:04;;;;;;;2.85;0.32;;;;;;;;;;5013457;28;20217;-85
2022/05/25 14:07:37;;;;;;;2.13;0.52;;;;;;;;;;5016281;28;20041;-87
2022/05/25 14:12:51;;;;;;;1.17;0.40;;;;;;;;;;4993910;28;20065;-86
2022/05/25 14:15:18;;;;;;;0.75;0.30;;;;;;;;;;4992366;28;20045;-86
2022/05/25 14:17:53;;;;;;;0.98;0.35;;;;;;;;;;4994264;28;20023;-86
2022/05/25 14:20:21;;;;;;;1.98;0.40;;;;;;;;;;5015099;28;20093;-87
2022/05/25 14:22:56;;;;;;;2.33;0.40;;;;;;;;;;5017073;28;20514;-87
2022/05/25 14:25:25;;;;;;;2.53;0.50;;;;;;;;;;5013402;28;20033;-87
2022/05/25 14:27:53;;;;;;;1.10;0.30;;;;;;;;;;5047170;28;20029;-85
2022/05/25 14:30:19;;;;;;;3.58;0.50;;;;;;;;;;5014181;28;20068;-88
2022/05/25 14:33:02;;;;;;;1.20;0.30;;;;;;;;;;5015689;28;20081;-89
2022/05/25 14:35:30;;;;;;;1.58;0.32;;;;;;;;;;5015192;28;20041;-88
2022/05/25 14:38:02;;;;;;;2.63;0.47;;;;;;;;;;5016115;28;20032;-87
2022/05/25 14:40:32;;;;;;;0.70;0.40;;;;;;;;;;5012958;28;20030;-89
2022/05/25 14:43:33;;;;;;;2.63;0.63;;;;;;;;;;5053356;28;20049;-86
2022/05/25 14:46:11;;;;;;;2.42;0.30;;;;;;;;;;5004703;28;20044;-86
2022/05/25 14:48:57;;;;;;;3.30;0.60;;;;;;;;;;5048486;28;20030;-85
2022/05/25 14:51:43;;;;;;;5.45;0.50;;;;;;;;;;5011061;28;20030;-87
2022/05/25 14:54:19;;;;;;;1.45;0.30;;;;;;;;;;5015348;28;20125;-90
2022/05/25 14:56:50;;;;;;;0.70;0.30;;;;;;;;;;5016420;28;20065;-91
2022/05/25 14:59:31;;;;;;;1.13;0.37;;;;;;;;;;5048694;28;20029;-91
2022/05/25 15:02:01;;;;;;;3.03;0.57;;;;;;;;;;5049588;28;20373;-89
2022/05/25 15:04:35;;;;;;;2.58;0.30;;;;;;;;;;5021634;28;20514;-87
2022/05/25 15:07:02;;;;;;;1.58;0.40;;;;;;;;;;5015148;28;20096;-91
2022/05/25 15:09:32;;;;;;;4.93;0.40;;;;;;;;;;5015458;28;20491;-90
2022/05/25 15:12:36;;;;;;;3.50;0.50;;;;;;;;;;5013193;28;20084;-90
2022/05/25 15:18:40;;;;;;;3.38;0.30;;;;;;;;;;4995801;28;20072;-89
2022/05/25 15:21:21;;;;;;;1.77;0.50;;;;;;;;;;4994170;28;20056;-88
2022/05/25 15:23:47;;;;;;;;;;;;;;;;;;4995384;28;20030;-88
2022/05/25 15:26:19;;;;;;;0.73;0.25;;;;;;;;;;5045176;28;19905;-89
2022/05/25 15:28:46;;;;;;;0.95;0.30;;;;;;;;;;5013033;28;20587;-90
2022/05/25 15:31:16;;;;;;;0.85;0.30;;;;;;;;;;5013934;28;20109;-88
2022/05/25 15:33:50;;;;;;;0.47;0.38;;;;;;;;;;5013256;28;20120;-89
2022/05/25 15:36:20;;;;;;;1.75;0.20;;;;;;;;;;5013175;28;20058;-87
2022/05/25 15:39:13;;;;;;;3.90;0.40;;;;;;;;;;5014984;28;20018;-87
2022/05/25 15:42:11;;;;;;;1.50;0.55;;;;;;;;;;5014604;28;20038;-87